createdAt,value
2023-01-09T00:00:44.982Z,21.73
2023-01-09T00:05:46.672Z,20.20
2023-01-09T00:10:49.994Z,20.15
2023-01-09T00:15:51.689Z,19.58
2023-01-09T00:20:54.395Z,19.92
2023-01-09T00:26:13.901Z,18.00
2023-01-09T00:31:16.087Z,17.67
2023-01-09T00:36:17.707Z,17.30
2023-01-09T00:41:36.002Z,17.40
2023-01-09T00:46:41.754Z,18.10
2023-01-09T00:51:43.469Z,18.42
2023-01-09T00:56:45.839Z,17.15
2023-01-09T01:01:47.686Z,18.65
2023-01-09T01:07:07.997Z,17.40
2023-01-09T01:12:09.639Z,17.60
2023-01-09T01:17:11.304Z,19.10
2023-01-09T01:22:13.061Z,17.73
2023-01-09T01:27:14.689Z,18.80
2023-01-09T01:32:16.308Z,18.70
2023-01-09T01:37:17.972Z,20.08
2023-01-09T01:42:19.675Z,19.70
2023-01-09T01:47:23.664Z,18.73
2023-01-09T01:52:26.367Z,21.38
2023-01-09T01:57:28.140Z,19.60
2023-01-09T02:02:31.996Z,21.50
2023-01-09T02:07:35.006Z,19.48
2023-01-09T02:12:36.610Z,19.95
2023-01-09T02:18:01.476Z,17.92
2023-01-09T02:23:39.887Z,17.58
2023-01-09T02:29:05.842Z,17.75
2023-01-09T02:34:14.181Z,15.38
2023-01-09T02:39:18.627Z,16.08
2023-01-09T02:44:27.914Z,16.80
2023-01-09T02:49:29.909Z,14.93
2023-01-09T02:54:37.483Z,13.82
2023-01-09T02:59:54.171Z,15.10
2023-01-09T03:05:28.855Z,13.38
2023-01-09T03:10:42.446Z,12.85
2023-01-09T03:15:50.710Z,12.95
2023-01-09T03:20:54.133Z,11.55
2023-01-09T03:25:55.724Z,11.80
2023-01-09T03:30:57.311Z,13.80
2023-01-09T03:35:58.945Z,15.27
2023-01-09T03:41:00.560Z,15.23
2023-01-09T03:46:03.004Z,15.75
2023-01-09T03:51:04.664Z,19.55
2023-01-09T03:56:06.613Z,18.20
2023-01-09T04:01:14.303Z,18.55
2023-01-09T04:06:15.966Z,18.27
2023-01-09T04:11:18.262Z,18.23
2023-01-09T04:16:19.963Z,19.65
2023-01-09T04:21:21.652Z,20.95
2023-01-09T04:26:23.414Z,19.05
2023-01-09T04:31:25.027Z,19.10
2023-01-09T04:36:26.717Z,17.60
2023-01-09T04:41:46.688Z,18.85
2023-01-09T04:46:48.811Z,19.52
2023-01-09T04:51:50.617Z,20.55
2023-01-09T04:56:52.212Z,20.45
2023-01-09T05:01:55.784Z,20.35
2023-01-09T05:06:57.504Z,19.23
2023-01-09T05:12:01.588Z,19.75
2023-01-09T05:17:03.584Z,20.58
2023-01-09T05:22:05.342Z,20.77
2023-01-09T05:27:07.084Z,21.38
2023-01-09T05:32:08.732Z,21.17
2023-01-09T05:37:10.372Z,21.80
2023-01-09T05:42:11.972Z,19.90
2023-01-09T05:47:13.628Z,19.67
2023-01-09T05:52:15.268Z,21.38
2023-01-09T05:57:17.176Z,19.75
2023-01-09T06:02:18.858Z,19.55
2023-01-09T06:07:23.281Z,18.23
2023-01-09T06:12:25.039Z,12.20
2023-01-09T06:17:26.674Z,12.07
2023-01-09T06:22:28.277Z,12.07
2023-01-09T06:27:30.017Z,11.57
2023-01-09T06:32:31.902Z,11.73
2023-01-09T06:37:33.589Z,9.88
2023-01-09T06:42:35.189Z,8.88
2023-01-09T06:47:36.787Z,7.60
2023-01-09T06:52:38.940Z,8.23
2023-01-09T06:57:40.557Z,8.02
2023-01-09T07:02:42.241Z,8.18
2023-01-09T07:07:43.894Z,8.40
2023-01-09T07:12:45.538Z,8.45
2023-01-09T07:17:47.186Z,9.68
2023-01-09T07:22:48.807Z,9.13
2023-01-09T07:27:50.472Z,8.20
2023-01-09T07:32:53.372Z,9.27
2023-01-09T07:37:54.986Z,10.98
2023-01-09T07:42:56.652Z,11.48
2023-01-09T07:47:58.287Z,12.02
2023-01-09T07:53:00.132Z,12.73
2023-01-09T07:58:01.809Z,13.40
2023-01-09T08:03:03.468Z,13.05
2023-01-09T08:08:05.358Z,8.18
2023-01-09T08:13:07.007Z,4.70
2023-01-09T08:18:08.856Z,5.20
2023-01-09T08:23:10.439Z,4.32
2023-01-09T08:28:12.682Z,3.45
2023-01-09T08:33:14.363Z,4.05
2023-01-09T08:38:16.050Z,4.55
2023-01-09T08:43:36.371Z,3.95
2023-01-09T08:48:37.986Z,2.63
2023-01-09T08:53:39.621Z,2.90
2023-01-09T08:58:41.221Z,2.92
2023-01-09T09:03:42.847Z,2.53
2023-01-09T09:08:44.487Z,2.60
2023-01-09T09:13:46.148Z,2.50
2023-01-09T09:18:47.733Z,2.45
2023-01-09T09:23:49.380Z,2.13
2023-01-09T09:28:50.970Z,2.30
2023-01-09T09:33:52.545Z,2.25
2023-01-09T09:38:54.141Z,2.00
2023-01-09T09:44:23.967Z,1.85
2023-01-09T09:49:40.323Z,1.90
2023-01-09T09:54:47.315Z,1.95
2023-01-09T09:59:51.511Z,1.80
2023-01-09T10:05:07.619Z,1.48
2023-01-09T10:10:38.138Z,1.50
2023-01-09T10:15:49.752Z,1.60
2023-01-09T10:21:10.531Z,1.50
2023-01-09T10:26:22.035Z,1.73
2023-01-09T10:31:48.784Z,1.40
2023-01-09T10:37:08.796Z,1.55
2023-01-09T10:42:55.672Z,2.10
2023-01-09T10:48:11.401Z,1.88
2023-01-09T10:53:21.375Z,1.63
2023-01-09T10:58:23.325Z,1.65
2023-01-09T11:03:28.010Z,1.23
2023-01-09T11:08:43.028Z,1.95
2023-01-09T11:13:48.591Z,1.95
2023-01-09T11:18:54.357Z,5.10
2023-01-09T11:23:56.656Z,7.97
2023-01-09T11:29:12.065Z,1.40
2023-01-09T11:34:18.872Z,1.42
2023-01-09T11:39:27.314Z,0.82
2023-01-09T11:44:31.911Z,1.30
2023-01-09T11:49:33.536Z,1.00
2023-01-09T11:54:38.314Z,0.82
2023-01-09T11:59:40.034Z,0.75
2023-01-09T12:05:17.438Z,0.70
2023-01-09T12:10:42.874Z,0.70
2023-01-09T12:16:11.509Z,0.60
2023-01-09T12:21:43.765Z,0.50
2023-01-09T12:27:21.486Z,0.60
2023-01-09T12:32:25.869Z,0.77
2023-01-09T12:37:33.209Z,0.63
2023-01-09T12:42:46.665Z,0.80
2023-01-09T12:47:50.180Z,0.80
2023-01-09T12:53:27.276Z,0.45
2023-01-09T12:58:40.448Z,0.93
2023-01-09T13:04:09.683Z,0.93
2023-01-09T13:09:29.404Z,0.80
2023-01-09T13:14:51.336Z,1.00
2023-01-09T13:19:54.196Z,1.40
2023-01-09T13:25:17.806Z,0.80
2023-01-09T13:30:45.096Z,1.10
2023-01-09T13:35:52.487Z,1.35
2023-01-09T13:41:30.455Z,0.95
2023-01-09T13:46:39.187Z,1.00
2023-01-09T13:51:43.504Z,1.83
2023-01-09T13:57:17.101Z,0.77
2023-01-09T14:02:34.072Z,1.17
2023-01-09T14:07:37.812Z,1.33
2023-01-09T14:12:41.887Z,1.08
2023-01-09T14:17:43.647Z,0.93
2023-01-09T14:22:56.050Z,0.90
2023-01-09T14:28:09.012Z,1.17
2023-01-09T14:33:19.891Z,0.93
2023-01-09T14:38:41.807Z,0.93
2023-01-09T14:44:03.468Z,0.90
2023-01-09T14:49:39.391Z,0.77
2023-01-09T14:54:44.061Z,1.05
2023-01-09T14:59:58.880Z,1.58
2023-01-09T15:05:09.565Z,1.23
2023-01-09T15:10:19.658Z,1.40
2023-01-09T15:15:22.542Z,0.82
2023-01-09T15:20:27.395Z,1.20
2023-01-09T15:25:40.005Z,1.02
2023-01-09T15:30:43.423Z,1.50
2023-01-09T15:35:49.588Z,0.98
2023-01-09T15:41:13.663Z,1.00
2023-01-09T15:46:16.213Z,1.13
2023-01-09T15:51:18.571Z,1.10
2023-01-09T15:56:25.645Z,1.70
2023-01-09T16:01:40.589Z,2.38
2023-01-09T16:06:52.664Z,1.80
2023-01-09T16:11:58.008Z,1.80
2023-01-09T16:17:02.311Z,2.63
2023-01-09T16:22:04.233Z,1.65
2023-01-09T16:27:34.948Z,1.25
2023-01-09T16:32:47.496Z,1.35
2023-01-09T16:37:49.099Z,1.40
2023-01-09T16:43:05.582Z,1.40
2023-01-09T16:48:13.965Z,2.50
2023-01-09T16:53:16.971Z,1.98
2023-01-09T16:58:25.528Z,2.83
2023-01-09T17:03:27.170Z,3.40
2023-01-09T17:08:31.672Z,1.67
2023-01-09T17:13:33.364Z,1.67
2023-01-09T17:18:34.954Z,1.38
2023-01-09T17:23:36.541Z,1.45
2023-01-09T17:28:39.251Z,2.20
2023-01-09T17:33:41.130Z,1.98
2023-01-09T17:38:42.733Z,1.80
2023-01-09T17:43:46.690Z,1.92
2023-01-09T17:48:48.780Z,1.40
2023-01-09T17:53:50.920Z,1.48
2023-01-09T17:58:52.940Z,1.75
2023-01-09T18:03:54.673Z,2.05
2023-01-09T18:08:58.201Z,2.65
2023-01-09T18:14:00.114Z,2.88
2023-01-09T18:19:02.331Z,2.83
2023-01-09T18:24:04.143Z,2.95
2023-01-09T18:29:05.735Z,3.10
2023-01-09T18:34:09.292Z,3.00
2023-01-09T18:39:11.804Z,2.40
2023-01-09T18:44:13.511Z,2.53
2023-01-09T18:49:15.124Z,1.90
2023-01-09T18:54:16.809Z,2.63
2023-01-09T18:59:18.418Z,2.10
2023-01-09T19:04:20.189Z,1.80
2023-01-09T19:09:21.814Z,2.17
2023-01-09T19:14:23.406Z,1.75
2023-01-09T19:19:25.748Z,1.83
2023-01-09T19:24:27.449Z,1.80
2023-01-09T19:29:29.658Z,2.08
2023-01-09T19:34:31.351Z,1.48
2023-01-09T19:39:32.942Z,1.98
2023-01-09T19:44:34.896Z,1.67
2023-01-09T19:49:36.821Z,1.83
2023-01-09T19:54:39.231Z,1.77
2023-01-09T19:59:40.851Z,1.77
2023-01-09T20:04:42.457Z,1.70
2023-01-09T20:09:44.154Z,1.60
2023-01-09T20:14:45.926Z,1.77
2023-01-09T20:19:47.523Z,1.70
2023-01-09T20:24:49.165Z,1.45
2023-01-09T20:29:50.795Z,1.52
2023-01-09T20:34:52.440Z,1.45
2023-01-09T20:39:54.089Z,1.45
2023-01-09T20:44:57.151Z,1.48
2023-01-09T20:49:58.742Z,1.45
2023-01-09T20:55:00.397Z,1.60
2023-01-09T21:00:02.218Z,1.20
2023-01-09T21:05:04.189Z,1.30
2023-01-09T21:10:06.253Z,1.92
2023-01-09T21:15:11.497Z,2.22
2023-01-09T21:20:15.044Z,1.50
2023-01-09T21:25:16.790Z,2.00
2023-01-09T21:30:18.518Z,2.20
2023-01-09T21:35:20.133Z,1.48
2023-01-09T21:40:21.766Z,1.20
2023-01-09T21:45:42.230Z,1.13
2023-01-09T21:50:43.883Z,1.48
2023-01-09T21:55:45.475Z,1.20
2023-01-09T22:00:47.113Z,0.98
2023-01-09T22:05:48.741Z,2.00
2023-01-09T22:10:58.589Z,1.20
2023-01-09T22:16:08.710Z,1.10
2023-01-09T22:21:10.388Z,1.50
2023-01-09T22:26:15.246Z,1.38
2023-01-09T22:31:22.065Z,1.50
2023-01-09T22:36:25.064Z,1.73
2023-01-09T22:41:29.755Z,1.67
2023-01-09T22:46:32.597Z,1.55
2023-01-09T22:51:34.320Z,2.03
2023-01-09T22:56:36.307Z,1.75
2023-01-09T23:01:37.987Z,1.60
2023-01-09T23:06:39.663Z,1.92
2023-01-09T23:11:59.755Z,2.13
2023-01-09T23:17:02.633Z,2.10
2023-01-09T23:22:04.852Z,2.03
2023-01-09T23:27:07.563Z,3.00
2023-01-09T23:32:09.171Z,2.00
2023-01-09T23:37:10.885Z,2.28
2023-01-09T23:42:31.052Z,2.00
2023-01-09T23:47:32.644Z,2.70
2023-01-09T23:52:34.234Z,2.20
2023-01-09T23:57:35.834Z,2.90
